createdAt,value
2023-01-30T00:01:10.101Z,30.60
2023-01-30T00:03:36.404Z,30.37
2023-01-30T00:06:02.693Z,30.59
2023-01-30T00:08:29.054Z,30.01
2023-01-30T00:10:55.306Z,30.43
2023-01-30T00:13:21.567Z,30.28
2023-01-30T00:15:47.885Z,29.91
2023-01-30T00:18:14.151Z,30.66
2023-01-30T00:20:40.429Z,30.08
2023-01-30T00:23:06.701Z,30.26
2023-01-30T00:25:33.103Z,30.31
2023-01-30T00:27:59.428Z,30.53
2023-01-30T00:30:25.738Z,31.07
2023-01-30T00:32:52.320Z,30.84
2023-01-30T00:35:18.602Z,31.08
2023-01-30T00:37:45.075Z,30.58
2023-01-30T00:40:11.345Z,30.93
2023-01-30T00:42:37.620Z,30.56
2023-01-30T00:45:03.869Z,29.85
2023-01-30T00:47:30.129Z,29.50
2023-01-30T00:49:56.382Z,30.63
2023-01-30T00:52:22.697Z,30.17
2023-01-30T00:54:48.989Z,31.19
2023-01-30T00:57:15.258Z,31.71
2023-01-30T00:59:41.523Z,32.59
2023-01-30T01:02:07.854Z,33.05
2023-01-30T01:04:34.145Z,32.28
2023-01-30T01:07:00.413Z,30.54
2023-01-30T01:09:26.671Z,31.51
2023-01-30T01:11:52.918Z,31.07
2023-01-30T01:14:19.260Z,31.23
2023-01-30T01:16:45.696Z,30.42
2023-01-30T01:19:12.319Z,29.85
2023-01-30T01:21:38.628Z,30.11
2023-01-30T01:24:04.898Z,30.53
2023-01-30T01:26:31.220Z,31.34
2023-01-30T01:28:57.601Z,31.89
2023-01-30T01:31:24.090Z,31.98
2023-01-30T01:33:50.531Z,31.57
2023-01-30T01:36:42.524Z,33.54
2023-01-30T01:39:03.054Z,34.38
2023-01-30T01:41:29.310Z,34.73
2023-01-30T01:43:55.568Z,34.08
2023-01-30T01:46:21.839Z,34.32
2023-01-30T01:48:48.123Z,36.67
2023-01-30T01:51:14.378Z,38.92
2023-01-30T01:53:40.641Z,38.66
2023-01-30T01:56:06.933Z,37.37
2023-01-30T01:58:33.188Z,34.64
2023-01-30T02:00:59.532Z,32.50
2023-01-30T02:03:25.844Z,30.39
2023-01-30T02:05:52.110Z,31.86
2023-01-30T02:08:18.382Z,35.18
2023-01-30T02:10:44.651Z,32.15
2023-01-30T02:13:10.939Z,31.52
2023-01-30T02:15:37.195Z,32.72
2023-01-30T02:18:03.452Z,32.44
2023-01-30T02:20:29.702Z,29.41
2023-01-30T02:22:55.984Z,28.94
2023-01-30T02:25:22.259Z,29.92
2023-01-30T02:27:48.529Z,31.23
2023-01-30T02:30:14.794Z,31.40
2023-01-30T02:32:41.084Z,31.71
2023-01-30T02:35:07.336Z,30.23
2023-01-30T02:37:33.626Z,28.24
2023-01-30T02:39:59.899Z,26.19
2023-01-30T02:42:26.168Z,26.12
2023-01-30T02:44:52.432Z,25.65
2023-01-30T02:47:18.720Z,25.07
2023-01-30T02:49:44.979Z,25.55
2023-01-30T02:52:11.221Z,25.74
2023-01-30T02:54:37.501Z,25.78
2023-01-30T02:57:03.790Z,26.04
2023-01-30T02:59:30.042Z,24.72
2023-01-30T03:01:56.293Z,24.27
2023-01-30T03:04:22.549Z,24.19
2023-01-30T03:06:48.795Z,23.19
2023-01-30T03:09:15.056Z,22.77
2023-01-30T03:11:41.320Z,23.59
2023-01-30T03:14:07.752Z,24.93
2023-01-30T03:16:34.017Z,25.46
2023-01-30T03:19:00.285Z,24.39
2023-01-30T03:21:26.551Z,23.36
2023-01-30T03:23:52.827Z,22.34
2023-01-30T03:26:19.109Z,22.47
2023-01-30T03:28:45.412Z,23.09
2023-01-30T03:31:11.777Z,22.35
2023-01-30T03:33:38.093Z,22.17
2023-01-30T03:36:04.340Z,22.95
2023-01-30T03:38:30.716Z,23.10
2023-01-30T03:40:56.993Z,23.04
2023-01-30T03:43:23.253Z,23.42
2023-01-30T03:45:49.527Z,23.15
2023-01-30T03:48:15.822Z,23.83
2023-01-30T03:50:42.097Z,23.89
2023-01-30T03:53:08.396Z,23.54
2023-01-30T03:55:34.662Z,23.94
2023-01-30T03:58:00.955Z,24.41
2023-01-30T04:00:27.247Z,25.83
2023-01-30T04:02:53.524Z,25.18
2023-01-30T04:05:20.036Z,24.88
2023-01-30T04:07:46.463Z,24.41
2023-01-30T04:10:12.747Z,24.25
2023-01-30T04:12:39.040Z,23.93
2023-01-30T04:15:05.316Z,23.16
2023-01-30T04:17:31.565Z,23.86
2023-01-30T04:19:57.903Z,23.58
2023-01-30T04:22:24.181Z,24.14
2023-01-30T04:24:50.453Z,23.89
2023-01-30T04:27:16.720Z,23.82
2023-01-30T04:29:43.000Z,24.70
2023-01-30T04:32:09.268Z,26.17
2023-01-30T04:34:35.541Z,25.81
2023-01-30T04:37:01.804Z,24.97
2023-01-30T04:39:28.106Z,24.48
2023-01-30T04:41:54.363Z,24.80
2023-01-30T04:44:20.650Z,24.67
2023-01-30T04:46:47.023Z,24.39
2023-01-30T04:49:13.287Z,24.51
2023-01-30T04:51:39.566Z,23.84
2023-01-30T04:54:05.935Z,23.71
2023-01-30T04:56:32.221Z,23.29
2023-01-30T04:58:58.486Z,24.08
2023-01-30T05:01:24.743Z,23.27
2023-01-30T05:03:51.042Z,24.08
2023-01-30T05:06:17.311Z,23.45
2023-01-30T05:08:46.594Z,23.53
2023-01-30T05:11:13.095Z,23.57
2023-01-30T05:13:39.349Z,23.34
2023-01-30T05:16:05.612Z,23.86
2023-01-30T05:18:31.900Z,23.28
2023-01-30T05:20:58.424Z,22.69
2023-01-30T05:23:24.701Z,24.36
2023-01-30T05:25:50.959Z,24.41
2023-01-30T05:28:17.216Z,25.15
2023-01-30T05:30:44.599Z,25.03
2023-01-30T05:33:12.519Z,24.90
2023-01-30T05:35:38.774Z,24.25
2023-01-30T05:38:05.033Z,24.24
2023-01-30T05:40:31.320Z,24.75
2023-01-30T05:42:57.584Z,25.24
2023-01-30T05:45:23.860Z,25.13
2023-01-30T05:47:50.148Z,26.17
2023-01-30T05:50:16.443Z,24.92
2023-01-30T05:52:42.708Z,24.06
2023-01-30T05:55:08.986Z,24.49
2023-01-30T05:57:35.272Z,24.38
2023-01-30T06:00:01.599Z,24.75
2023-01-30T06:02:27.912Z,24.91
2023-01-30T06:04:54.202Z,25.07
2023-01-30T06:07:20.497Z,25.07
2023-01-30T06:09:46.761Z,25.67
2023-01-30T06:12:13.115Z,27.00
2023-01-30T06:14:39.477Z,27.49
2023-01-30T06:17:05.804Z,28.11
2023-01-30T06:19:32.091Z,27.88
2023-01-30T06:21:58.367Z,28.59
2023-01-30T06:24:24.698Z,28.43
2023-01-30T06:26:51.025Z,28.09
2023-01-30T06:29:17.337Z,29.40
2023-01-30T06:31:43.643Z,29.43
2023-01-30T06:34:09.941Z,29.09
2023-01-30T06:36:36.280Z,29.97
2023-01-30T06:39:02.556Z,29.61
2023-01-30T06:41:28.830Z,29.35
2023-01-30T06:43:55.097Z,29.95
2023-01-30T06:46:21.428Z,29.20
2023-01-30T06:48:47.731Z,30.29
2023-01-30T06:51:14.018Z,30.14
2023-01-30T06:53:40.285Z,28.89
2023-01-30T06:56:06.532Z,29.68
2023-01-30T06:58:32.859Z,29.26
2023-01-30T07:00:59.113Z,29.70
2023-01-30T07:03:25.403Z,30.90
2023-01-30T07:05:51.732Z,30.39
2023-01-30T07:08:18.007Z,31.10
2023-01-30T07:10:44.268Z,30.84
2023-01-30T07:13:10.574Z,30.49
2023-01-30T07:15:36.843Z,31.42
2023-01-30T07:18:03.146Z,31.05
2023-01-30T07:20:29.490Z,30.30
2023-01-30T07:22:55.851Z,31.01
2023-01-30T07:25:22.143Z,31.53
2023-01-30T07:27:48.422Z,31.51
2023-01-30T07:30:14.718Z,31.67
2023-01-30T07:32:40.991Z,31.34
2023-01-30T07:35:07.269Z,30.62
2023-01-30T07:37:33.559Z,30.85
2023-01-30T07:39:59.813Z,31.37
2023-01-30T07:42:26.141Z,30.76
2023-01-30T07:44:52.396Z,30.51
2023-01-30T07:47:18.707Z,30.83
2023-01-30T07:49:45.068Z,31.48
2023-01-30T07:52:11.383Z,30.17
2023-01-30T07:54:37.643Z,30.37
2023-01-30T07:57:03.914Z,30.89
2023-01-30T07:59:30.184Z,30.05
2023-01-30T08:01:56.461Z,29.90
2023-01-30T08:04:22.732Z,31.24
2023-01-30T08:06:49.011Z,31.17
2023-01-30T08:09:15.270Z,30.87
2023-01-30T08:11:41.560Z,30.18
2023-01-30T08:14:07.853Z,30.18
2023-01-30T08:16:34.196Z,31.07
2023-01-30T08:19:00.534Z,31.49
2023-01-30T08:21:26.823Z,31.26
2023-01-30T08:23:53.084Z,31.53
2023-01-30T08:26:19.395Z,30.56
2023-01-30T08:28:45.724Z,31.05
2023-01-30T08:31:12.093Z,32.03
2023-01-30T08:33:38.422Z,31.02
2023-01-30T08:36:04.688Z,32.10
2023-01-30T08:38:30.947Z,32.30
2023-01-30T08:40:57.236Z,31.74
2023-01-30T08:43:23.513Z,32.72
2023-01-30T08:45:49.801Z,32.72
2023-01-30T08:48:16.128Z,32.42
2023-01-30T08:50:42.399Z,32.59
2023-01-30T08:53:08.661Z,32.41
2023-01-30T08:55:34.971Z,32.36
2023-01-30T08:58:01.221Z,31.37
2023-01-30T09:00:27.488Z,31.82
2023-01-30T09:02:53.833Z,32.50
2023-01-30T09:05:20.112Z,33.53
2023-01-30T09:07:46.385Z,33.36
2023-01-30T09:10:12.674Z,33.97
2023-01-30T09:12:38.938Z,33.47
2023-01-30T09:15:05.220Z,33.23
2023-01-30T09:17:31.489Z,33.59
2023-01-30T09:19:57.760Z,33.75
2023-01-30T09:22:24.019Z,34.68
2023-01-30T09:24:50.287Z,33.64
2023-01-30T09:27:16.570Z,33.43
2023-01-30T09:29:44.419Z,34.10
2023-01-30T09:32:11.684Z,32.72
2023-01-30T09:34:37.932Z,32.50
2023-01-30T09:37:05.097Z,33.14
2023-01-30T09:39:31.534Z,32.54
2023-01-30T09:41:57.805Z,33.01
2023-01-30T09:44:24.086Z,33.18
2023-01-30T09:46:50.367Z,33.83
2023-01-30T09:49:16.635Z,33.09
2023-01-30T09:51:42.963Z,32.64
2023-01-30T09:54:09.248Z,32.65
2023-01-30T09:56:35.516Z,33.56
2023-01-30T09:59:01.815Z,32.84
2023-01-30T10:01:28.093Z,32.90
2023-01-30T10:03:54.392Z,32.64
2023-01-30T10:06:20.665Z,32.43
2023-01-30T10:08:46.940Z,32.05
2023-01-30T10:11:13.211Z,32.41
2023-01-30T10:13:39.505Z,32.37
2023-01-30T10:16:05.835Z,32.06
2023-01-30T10:18:32.246Z,32.10
2023-01-30T10:20:58.552Z,33.77
2023-01-30T10:23:24.830Z,32.88
2023-01-30T10:25:51.094Z,33.19
2023-01-30T10:28:17.373Z,32.90
2023-01-30T10:30:43.681Z,31.79
2023-01-30T10:33:09.975Z,31.22
2023-01-30T10:35:36.249Z,30.57
2023-01-30T10:38:02.527Z,30.89
2023-01-30T10:40:28.788Z,31.13
2023-01-30T10:42:55.067Z,30.42
2023-01-30T10:45:22.440Z,29.29
2023-01-30T10:47:48.710Z,27.03
2023-01-30T10:50:14.994Z,27.53
2023-01-30T10:52:41.319Z,26.84
2023-01-30T10:55:07.592Z,26.72
2023-01-30T10:57:33.874Z,26.77
2023-01-30T11:00:00.151Z,27.30
2023-01-30T11:02:26.492Z,26.87
2023-01-30T11:04:52.797Z,27.56
2023-01-30T11:07:19.082Z,27.32
2023-01-30T11:09:45.334Z,27.29
2023-01-30T11:12:11.616Z,27.53
2023-01-30T11:14:37.875Z,27.11
2023-01-30T11:17:04.152Z,26.56
2023-01-30T11:19:30.529Z,27.20
2023-01-30T11:21:56.803Z,27.07
2023-01-30T11:24:23.071Z,26.08
2023-01-30T11:26:49.460Z,26.47
2023-01-30T11:29:15.784Z,26.95
2023-01-30T11:31:42.295Z,26.81
2023-01-30T11:34:08.633Z,27.29
2023-01-30T11:36:34.898Z,27.52
2023-01-30T11:39:01.182Z,27.57
2023-01-30T11:41:27.480Z,27.71
2023-01-30T11:43:53.752Z,27.67
2023-01-30T11:46:20.037Z,27.51
2023-01-30T11:49:03.646Z,28.97
2023-01-30T11:51:32.620Z,28.23
2023-01-30T11:53:58.943Z,27.81
2023-01-30T11:56:25.188Z,27.39
2023-01-30T11:58:51.536Z,27.89
2023-01-30T12:01:17.847Z,27.52
2023-01-30T12:03:44.106Z,26.53
2023-01-30T12:06:10.405Z,26.83
2023-01-30T12:08:43.805Z,26.96
2023-01-30T12:11:10.144Z,26.08
2023-01-30T12:13:36.432Z,26.24
2023-01-30T12:16:02.746Z,25.64
2023-01-30T12:18:29.060Z,26.54
2023-01-30T12:20:55.365Z,25.74
2023-01-30T12:23:21.630Z,24.89
2023-01-30T12:25:47.897Z,26.06
2023-01-30T12:28:14.273Z,25.79
2023-01-30T12:30:40.527Z,25.39
2023-01-30T12:33:06.813Z,25.55
2023-01-30T12:35:33.119Z,25.18
2023-01-30T12:37:59.400Z,25.80
2023-01-30T12:40:25.693Z,25.84
2023-01-30T12:42:51.970Z,25.74
2023-01-30T12:45:18.447Z,24.92
2023-01-30T12:47:44.877Z,25.32
2023-01-30T12:50:11.168Z,26.36
2023-01-30T12:52:37.434Z,26.38
2023-01-30T12:55:03.799Z,25.67
2023-01-30T12:57:30.089Z,25.51
2023-01-30T12:59:56.371Z,25.79
2023-01-30T13:02:23.912Z,24.67
2023-01-30T13:04:56.722Z,25.87
2023-01-30T13:07:28.567Z,26.23
2023-01-30T13:09:54.832Z,25.49
2023-01-30T13:12:21.119Z,25.88
2023-01-30T13:14:47.388Z,25.32
2023-01-30T13:17:13.663Z,24.91
2023-01-30T13:19:41.493Z,25.58
2023-01-30T13:22:07.967Z,25.11
2023-01-30T13:24:34.247Z,24.78
2023-01-30T13:27:00.513Z,25.82
2023-01-30T13:29:26.784Z,25.94
2023-01-30T13:31:53.237Z,26.43
2023-01-30T13:34:19.639Z,26.56
2023-01-30T13:36:45.895Z,25.94
2023-01-30T13:39:12.229Z,26.20
2023-01-30T13:41:38.509Z,25.62
2023-01-30T13:44:04.824Z,25.15
2023-01-30T13:46:31.300Z,25.61
2023-01-30T13:48:57.605Z,24.41
2023-01-30T13:51:23.892Z,23.91
2023-01-30T13:53:50.159Z,24.60
2023-01-30T13:56:39.843Z,24.01
2023-01-30T13:59:02.661Z,25.07
2023-01-30T14:01:28.936Z,24.97
2023-01-30T14:03:55.193Z,24.22
2023-01-30T14:06:21.463Z,24.05
2023-01-30T14:08:47.735Z,23.31
2023-01-30T14:11:14.063Z,23.28
2023-01-30T14:13:40.364Z,23.68
2023-01-30T14:16:06.709Z,23.97
2023-01-30T14:18:33.007Z,23.33
2023-01-30T14:20:59.265Z,24.45
2023-01-30T14:23:25.546Z,23.74
2023-01-30T14:25:51.820Z,23.27
2023-01-30T14:28:18.104Z,23.51
2023-01-30T14:30:44.458Z,23.42
2023-01-30T14:33:10.752Z,23.16
2023-01-30T14:35:37.017Z,23.29
2023-01-30T14:38:03.321Z,23.30
2023-01-30T14:40:29.705Z,24.67
2023-01-30T14:42:55.975Z,24.51
2023-01-30T14:45:22.250Z,24.80
2023-01-30T14:47:50.931Z,25.18
2023-01-30T14:50:18.273Z,24.77
2023-01-30T14:52:45.826Z,24.55
2023-01-30T14:55:12.109Z,24.53
2023-01-30T14:57:38.383Z,24.17
2023-01-30T15:00:16.098Z,24.66
2023-01-30T15:02:44.421Z,24.51
2023-01-30T15:05:10.805Z,25.38
2023-01-30T15:07:37.084Z,24.50
2023-01-30T15:10:03.357Z,23.87
2023-01-30T15:12:29.649Z,25.06
2023-01-30T15:14:56.019Z,24.81
2023-01-30T15:17:22.270Z,24.59
2023-01-30T15:19:48.526Z,24.29
2023-01-30T15:22:14.821Z,24.04
2023-01-30T15:24:41.121Z,24.73
2023-01-30T15:27:07.410Z,23.36
2023-01-30T15:29:33.707Z,23.84
2023-01-30T15:32:00.132Z,23.29
2023-01-30T15:34:26.483Z,23.82
2023-01-30T15:36:52.804Z,24.29
2023-01-30T15:39:19.061Z,24.03
2023-01-30T15:41:45.337Z,23.78
2023-01-30T15:44:11.595Z,24.53
2023-01-30T15:46:37.868Z,23.74
2023-01-30T15:49:04.199Z,23.55
2023-01-30T15:51:30.477Z,23.52
2023-01-30T15:53:56.790Z,24.54
2023-01-30T15:56:23.098Z,24.34
2023-01-30T15:58:49.363Z,24.87
2023-01-30T16:01:15.662Z,24.96
2023-01-30T16:03:41.953Z,24.85
2023-01-30T16:06:08.225Z,25.15
2023-01-30T16:08:34.499Z,25.99
2023-01-30T16:11:00.820Z,25.64
2023-01-30T16:13:27.138Z,25.86
2023-01-30T16:15:53.511Z,26.31
2023-01-30T16:18:19.821Z,26.13
2023-01-30T16:20:59.006Z,25.88
2023-01-30T16:23:27.400Z,25.49
2023-01-30T16:25:53.716Z,26.08
2023-01-30T16:28:19.968Z,25.78
2023-01-30T16:30:46.310Z,26.31
2023-01-30T16:33:12.618Z,26.17
2023-01-30T16:35:38.932Z,25.32
2023-01-30T16:38:05.191Z,26.51
2023-01-30T16:40:31.451Z,25.42
2023-01-30T16:43:06.468Z,25.72
2023-01-30T16:45:32.840Z,26.08
2023-01-30T16:47:59.132Z,26.20
2023-01-30T16:50:25.392Z,26.43
2023-01-30T16:52:51.962Z,25.92
2023-01-30T16:55:18.265Z,25.89
2023-01-30T16:57:44.554Z,26.20
2023-01-30T17:00:10.836Z,26.73
2023-01-30T17:02:37.125Z,27.06
2023-01-30T17:05:03.446Z,26.65
2023-01-30T17:07:29.709Z,27.11
2023-01-30T17:09:55.957Z,27.36
2023-01-30T17:12:22.310Z,26.97
2023-01-30T17:14:48.579Z,26.96
2023-01-30T17:17:14.857Z,26.58
2023-01-30T17:19:41.121Z,26.02
2023-01-30T17:22:07.380Z,26.06
2023-01-30T17:24:33.651Z,26.32
2023-01-30T17:26:59.934Z,27.21
2023-01-30T17:29:41.554Z,27.90
2023-01-30T17:32:08.731Z,27.79
2023-01-30T17:34:35.081Z,27.69
2023-01-30T17:37:01.352Z,30.24
2023-01-30T17:39:27.616Z,28.43
2023-01-30T17:41:53.939Z,28.77
2023-01-30T17:44:20.208Z,29.61
2023-01-30T17:46:46.504Z,29.28
2023-01-30T17:49:12.762Z,29.97
2023-01-30T17:51:39.068Z,31.57
2023-01-30T17:54:05.461Z,31.77
2023-01-30T17:56:31.733Z,31.93
2023-01-30T17:58:57.996Z,32.96
2023-01-30T18:01:24.394Z,32.77
2023-01-30T18:03:50.756Z,32.28
2023-01-30T18:06:17.040Z,32.20
2023-01-30T18:08:43.306Z,32.97
2023-01-30T18:11:09.595Z,34.17
2023-01-30T18:13:36.539Z,33.32
2023-01-30T18:16:02.877Z,33.28
2023-01-30T18:18:29.165Z,33.41
2023-01-30T18:20:55.435Z,34.17
2023-01-30T18:23:21.701Z,34.87
2023-01-30T18:25:47.978Z,33.75
2023-01-30T18:28:14.261Z,33.79
2023-01-30T18:30:40.558Z,32.91
2023-01-30T18:33:06.842Z,32.54
2023-01-30T18:35:33.111Z,33.22
2023-01-30T18:38:02.635Z,32.67
2023-01-30T18:40:29.243Z,33.31
2023-01-30T18:42:55.497Z,31.62
2023-01-30T18:45:21.764Z,32.53
2023-01-30T18:47:48.027Z,32.60
2023-01-30T18:50:14.390Z,31.24
2023-01-30T18:52:40.663Z,30.08
2023-01-30T18:55:06.949Z,29.79
2023-01-30T18:57:33.257Z,29.90
2023-01-30T18:59:59.600Z,30.30
2023-01-30T19:02:25.953Z,29.92
2023-01-30T19:04:52.223Z,31.84
2023-01-30T19:07:18.508Z,31.63
2023-01-30T19:09:44.780Z,33.14
2023-01-30T19:12:11.101Z,34.53
2023-01-30T19:14:37.378Z,36.12
2023-01-30T19:17:03.697Z,36.81
2023-01-30T19:19:30.004Z,35.28
2023-01-30T19:21:56.362Z,32.04
2023-01-30T19:24:22.681Z,30.16
2023-01-30T19:26:48.995Z,30.63
2023-01-30T19:29:15.325Z,29.86
2023-01-30T19:31:41.771Z,32.06
2023-01-30T19:34:08.070Z,32.82
2023-01-30T19:36:34.344Z,33.18
2023-01-30T19:39:00.661Z,33.12
2023-01-30T19:41:26.988Z,34.19
2023-01-30T19:43:53.311Z,33.46
2023-01-30T19:46:19.691Z,33.14
2023-01-30T19:48:46.028Z,31.56
2023-01-30T19:51:12.315Z,30.58
2023-01-30T19:53:38.577Z,30.54
2023-01-30T19:56:05.179Z,31.95
2023-01-30T19:58:31.496Z,33.84
2023-01-30T20:00:57.766Z,35.04
2023-01-30T20:03:24.066Z,35.02
2023-01-30T20:05:50.458Z,34.19
2023-01-30T20:08:31.722Z,35.79
2023-01-30T20:10:58.801Z,37.08
2023-01-30T20:13:25.128Z,40.09
2023-01-30T20:15:51.449Z,41.02
2023-01-30T20:18:17.714Z,40.17
2023-01-30T20:20:44.206Z,40.67
2023-01-30T20:23:10.473Z,43.22
2023-01-30T20:25:36.754Z,39.64
2023-01-30T20:28:03.034Z,37.91
2023-01-30T20:30:29.341Z,36.32
2023-01-30T20:32:55.657Z,36.26
2023-01-30T20:35:21.958Z,36.88
2023-01-30T20:37:48.245Z,36.62
2023-01-30T20:40:14.498Z,38.74
2023-01-30T20:42:40.765Z,38.44
2023-01-30T20:45:07.042Z,37.81
2023-01-30T20:47:33.356Z,35.78
2023-01-30T20:49:59.684Z,33.21
2023-01-30T20:52:26.125Z,32.64
2023-01-30T20:54:52.424Z,33.80
2023-01-30T20:57:18.915Z,33.28
2023-01-30T20:59:45.239Z,33.17
2023-01-30T21:02:11.527Z,33.12
2023-01-30T21:04:38.305Z,33.30
2023-01-30T21:07:05.037Z,33.81
2023-01-30T21:09:31.329Z,35.40
2023-01-30T21:11:57.598Z,36.38
2023-01-30T21:14:26.312Z,34.60
2023-01-30T21:16:52.945Z,35.74
2023-01-30T21:19:19.271Z,33.75
2023-01-30T21:21:47.591Z,33.87
2023-01-30T21:24:14.400Z,33.42
2023-01-30T21:26:40.777Z,35.27
2023-01-30T21:29:07.089Z,37.14
2023-01-30T21:31:33.455Z,37.08
2023-01-30T21:33:59.768Z,34.31
2023-01-30T21:36:26.091Z,34.68
2023-01-30T21:38:52.468Z,34.10
2023-01-30T21:41:18.748Z,33.67
2023-01-30T21:43:45.011Z,33.29
2023-01-30T21:46:11.293Z,32.70
2023-01-30T21:48:37.850Z,33.26
2023-01-30T21:51:04.152Z,32.56
2023-01-30T21:53:30.440Z,32.18
2023-01-30T21:55:56.938Z,32.58
2023-01-30T21:58:23.184Z,32.34
2023-01-30T22:00:49.444Z,32.22
2023-01-30T22:03:15.741Z,31.27
2023-01-30T22:05:42.013Z,31.25
2023-01-30T22:08:08.294Z,30.89
2023-01-30T22:10:34.584Z,30.25
2023-01-30T22:13:00.863Z,30.89
2023-01-30T22:15:27.137Z,30.73
2023-01-30T22:17:53.489Z,30.62
2023-01-30T22:20:19.804Z,30.07
2023-01-30T22:22:46.094Z,30.25
2023-01-30T22:25:12.377Z,30.32
2023-01-30T22:27:38.655Z,30.10
2023-01-30T22:30:04.946Z,29.15
2023-01-30T22:32:31.229Z,28.35
2023-01-30T22:34:57.514Z,23.60
2023-01-30T22:37:23.789Z,25.58
2023-01-30T22:39:50.392Z,24.59
2023-01-30T22:42:16.714Z,22.62
2023-01-30T22:44:46.053Z,20.50
2023-01-30T22:47:12.336Z,21.68
2023-01-30T22:49:38.655Z,20.75
2023-01-30T22:52:04.922Z,19.16
2023-01-30T22:54:31.191Z,18.79
2023-01-30T22:56:57.456Z,19.09
2023-01-30T22:59:23.747Z,18.97
2023-01-30T23:01:50.036Z,18.82
2023-01-30T23:04:16.310Z,19.04
2023-01-30T23:06:42.584Z,18.62
2023-01-30T23:09:08.863Z,17.60
2023-01-30T23:11:35.693Z,17.13
2023-01-30T23:14:02.006Z,15.56
2023-01-30T23:16:28.321Z,14.94
2023-01-30T23:18:54.608Z,14.22
2023-01-30T23:21:20.885Z,13.15
2023-01-30T23:23:47.152Z,10.92
2023-01-30T23:26:13.455Z,9.17
2023-01-30T23:28:40.260Z,8.50
2023-01-30T23:31:06.581Z,7.80
2023-01-30T23:33:32.855Z,7.59
2023-01-30T23:35:59.135Z,7.66
2023-01-30T23:38:25.384Z,6.41
2023-01-30T23:40:51.718Z,6.25
2023-01-30T23:43:17.982Z,6.23
2023-01-30T23:45:44.994Z,6.12
2023-01-30T23:48:11.359Z,6.45
2023-01-30T23:50:37.697Z,6.34
2023-01-30T23:53:03.986Z,6.29
2023-01-30T23:55:32.488Z,6.61
2023-01-30T23:57:59.684Z,6.76
